Time;durP1;ratioP1;P1;durP2;ratioP2;P2;SDS_P1;SDS_P2;PMS_P1;PMS_P2;Temp;Humidity;BMP_temperature;BMP_pressure;BME280_temperature;BME280_humidity;BME280_pressure;Samples;Min_cycle;Max_cycle;Signal;HPM_P1;HPM_P2
2022/12/16 00:01:29;;;;;;;64.10;32.73;;;;;;;4.05;98.35;100625.59;123375;1099;117849;-76
2022/12/16 00:04:00;;;;;;;70.00;33.10;;;;;;;4.04;98.76;100629.02;123330;1099;104363;-76
2022/12/16 00:06:34;;;;;;;67.43;34.47;;;;;;;4.03;98.33;100633.29;123300;1099;104318;-76
2022/12/16 00:09:05;;;;;;;67.45;34.25;;;;;;;4.05;98.63;100638.58;123487;1099;104245;-76
2022/12/16 00:11:36;;;;;;;63.83;32.83;;;;;;;4.07;98.48;100645.68;123242;1099;104350;-76
2022/12/16 00:14:07;;;;;;;67.57;33.77;;;;;;;4.09;98.88;100654.45;123297;1099;104350;-76
2022/12/16 00:16:39;;;;;;;65.90;34.30;;;;;;;4.11;98.89;100645.09;123364;1098;104271;-76
2022/12/16 00:19:10;;;;;;;67.10;32.70;;;;;;;4.12;98.49;100646.86;123412;1099;104318;-76
2022/12/16 00:21:41;;;;;;;66.75;33.65;;;;;;;4.15;98.79;100640.98;123400;1099;112289;-76
2022/12/16 00:24:12;;;;;;;70.70;34.50;;;;;;;4.17;98.50;100634.17;123475;1099;104246;-76
2022/12/16 00:26:46;;;;;;;68.55;35.90;;;;;;;4.19;98.87;100632.59;123497;1099;104383;-76
2022/12/16 00:29:18;;;;;;;66.90;35.07;;;;;;;4.23;98.76;100631.08;123453;1099;104357;-76
2022/12/16 00:31:49;;;;;;;68.73;33.77;;;;;;;4.25;99.24;100624.27;123380;1098;104347;-76
2022/12/16 00:34:20;;;;;;;67.57;33.73;;;;;;;4.26;98.54;100607.89;123407;1099;104271;-76
2022/12/16 00:36:52;;;;;;;66.23;32.23;;;;;;;4.26;99.12;100598.39;123436;1099;104271;-76
2022/12/16 00:39:23;;;;;;;70.23;35.57;;;;;;;4.25;99.23;100583.59;123444;1099;104368;-76
2022/12/16 00:41:54;;;;;;;68.57;34.77;;;;;;;4.23;98.54;100584.32;123427;1099;104364;-76
2022/12/16 00:44:25;;;;;;;66.17;33.63;;;;;;;4.23;99.23;100581.72;123443;1099;104326;-75
2022/12/16 00:46:56;;;;;;;64.10;33.85;;;;;;;4.23;98.57;100584.32;123407;1099;104651;-76
2022/12/16 00:49:27;;;;;;;66.97;33.93;;;;;;;4.23;98.83;100579.13;123431;1099;104261;-76
2022/12/16 00:51:58;;;;;;;62.37;32.17;;;;;;;4.24;98.68;100576.63;123332;1099;105549;-76
2022/12/16 00:54:29;;;;;;;66.13;34.80;;;;;;;4.23;99.21;100590.40;123386;1099;104377;-78
2022/12/16 00:57:00;;;;;;;65.67;33.70;;;;;;;4.23;98.82;100569.63;123419;1099;104293;-75
2022/12/16 00:59:32;;;;;;;63.10;34.40;;;;;;;4.21;99.02;100558.25;123411;1098;104354;-75
2022/12/16 01:02:03;;;;;;;67.07;33.43;;;;;;;4.21;99.31;100545.27;123482;1099;104622;-75
2022/12/16 01:04:34;;;;;;;63.37;33.63;;;;;;;4.19;99.20;100549.47;123434;1099;104402;-76
2022/12/16 01:07:05;;;;;;;60.10;31.13;;;;;;;4.18;99.00;100544.19;123391;1098;104383;-76
2022/12/16 01:09:36;;;;;;;56.93;29.80;;;;;;;4.17;99.14;100551.05;123478;1099;104306;-77
2022/12/16 01:12:08;;;;;;;58.40;29.13;;;;;;;4.14;99.04;100553.46;123177;1099;104736;-76
2022/12/16 01:14:39;;;;;;;53.25;28.75;;;;;;;4.12;99.41;100578.45;123596;1099;104207;-76
2022/12/16 01:17:10;;;;;;;54.30;27.93;;;;;;;4.12;98.57;100596.63;123513;1099;104324;-76
2022/12/16 01:19:41;;;;;;;54.23;27.00;;;;;;;4.10;99.14;100604.33;123399;1099;104344;-76
2022/12/16 01:22:13;;;;;;;50.20;25.83;;;;;;;4.10;98.72;100601.73;123483;1099;104351;-76
2022/12/16 01:24:45;;;;;;;51.77;25.90;;;;;;;4.11;99.35;100600.02;123503;1099;104463;-75
2022/12/16 01:27:16;;;;;;;47.70;25.75;;;;;;;4.11;98.73;100605.21;123533;1098;104249;-76
2022/12/16 01:29:49;;;;;;;49.03;24.90;;;;;;;4.11;98.62;100606.13;123503;1099;104345;-76
2022/12/16 01:32:20;;;;;;;42.50;22.93;;;;;;;4.11;99.10;100600.94;123470;1099;104348;-76
2022/12/16 01:34:53;;;;;;;39.17;21.53;;;;;;;4.10;98.75;100582.66;123465;1099;104269;-76
2022/12/16 01:37:25;;;;;;;44.45;22.55;;;;;;;4.09;98.58;100581.74;123530;1099;104274;-76
2022/12/16 01:39:56;;;;;;;45.30;23.55;;;;;;;4.07;98.93;100580.76;123426;1098;104342;-76
2022/12/16 01:42:30;;;;;;;40.53;21.37;;;;;;;4.06;99.16;100576.35;123118;1102;104469;-76
2022/12/16 01:45:32;;;;;;;39.60;20.30;;;;;;;4.05;98.72;100579.78;123472;1099;104274;-77
2022/12/16 01:48:16;;;;;;;35.90;18.60;;;;;;;4.05;99.24;100569.39;123570;1099;104750;-76
2022/12/16 01:50:49;;;;;;;35.25;18.35;;;;;;;4.05;99.22;100578.86;123429;1099;104640;-77
2022/12/16 01:53:21;;;;;;;36.43;19.70;;;;;;;4.06;99.28;100565.08;123456;1099;104318;-77
2022/12/16 01:55:54;;;;;;;38.30;19.77;;;;;;;4.06;99.25;100570.27;123430;1099;104326;-78
2022/12/16 01:58:29;;;;;;;34.60;17.55;;;;;;;4.07;99.32;100582.47;123464;1099;104294;-76
2022/12/16 02:01:03;;;;;;;34.17;17.20;;;;;;;4.07;99.22;100582.47;123536;1098;104307;-76
2022/12/16 02:03:37;;;;;;;36.20;18.10;;;;;;;4.06;99.56;100580.66;123336;1099;104281;-77
2022/12/16 02:06:09;;;;;;;33.05;18.27;;;;;;;4.06;99.06;100580.66;123580;1099;104223;-77
2022/12/16 02:08:40;;;;;;;32.83;16.83;;;;;;;4.05;99.22;100584.97;123524;1099;104278;-77
2022/12/16 02:11:26;;;;;;;32.13;16.90;;;;;;;4.05;99.32;100589.24;123558;1099;104345;-77
2022/12/16 02:14:13;;;;;;;34.30;16.90;;;;;;;4.04;99.65;100582.27;123146;1099;104377;-77
2022/12/16 02:16:53;;;;;;;35.23;17.43;;;;;;;4.04;99.56;100590.06;123478;1099;104319;-77
2022/12/16 02:19:53;;;;;;;33.35;16.80;;;;;;;4.00;99.48;100585.47;123459;1097;104274;-77
2022/12/16 02:22:37;;;;;;;31.63;16.23;;;;;;;4.03;98.96;100596.05;123505;1098;104245;-77
2022/12/16 02:25:30;;;;;;;32.37;15.93;;;;;;;4.03;99.40;100589.14;123474;1099;104297;-77
2022/12/16 02:28:08;;;;;;;29.03;14.93;;;;;;;4.03;99.74;100591.74;123663;1099;104233;-77
2022/12/16 02:31:05;;;;;;;26.97;14.27;;;;;;;4.04;99.52;100592.66;123565;1098;104297;-77
2022/12/16 02:34:09;;;;;;;26.97;12.97;;;;;;;4.05;99.69;100590.16;123460;1099;105523;-77
2022/12/16 02:36:56;;;;;;;25.37;11.50;;;;;;;4.05;99.67;100592.76;123331;1099;104373;-77
2022/12/16 02:39:35;;;;;;;22.60;11.50;;;;;;;4.06;99.56;100601.44;123462;1099;104361;-77
2022/12/16 02:42:17;;;;;;;21.80;10.70;;;;;;;4.07;99.80;100592.86;123468;1099;104271;-77
2022/12/16 02:44:59;;;;;;;20.85;9.20;;;;;;;4.07;99.38;100585.95;123460;1099;111733;-77
2022/12/16 02:47:32;;;;;;;20.13;9.47;;;;;;;4.05;99.89;100584.97;123450;1099;104636;-77
2022/12/16 02:50:04;;;;;;;17.53;8.83;;;;;;;4.03;99.21;100583.06;123554;1099;104348;-77
2022/12/16 02:52:36;;;;;;;19.63;9.50;;;;;;;4.02;99.99;100589.05;123454;1098;104348;-77
2022/12/16 02:55:10;;;;;;;21.00;9.90;;;;;;;4.02;99.55;100586.45;123456;1099;104390;-77
2022/12/16 02:57:56;;;;;;;19.30;9.20;;;;;;;4.02;99.92;100591.64;123118;1099;104351;-77
2022/12/16 03:00:34;;;;;;;20.57;9.43;;;;;;;4.03;99.65;100586.55;123454;1098;104325;-77
2022/12/16 03:03:11;;;;;;;18.93;8.40;;;;;;;4.04;99.83;100584.88;123515;1099;104623;-77
2022/12/16 03:05:47;;;;;;;17.73;7.93;;;;;;;4.03;99.25;100590.86;123627;1099;107077;-77
2022/12/16 03:08:23;;;;;;;18.13;7.60;;;;;;;4.00;99.58;100590.66;123545;1099;104283;-77
2022/12/16 03:11:00;;;;;;;18.63;8.57;;;;;;;3.98;99.63;100587.97;123492;1098;104293;-77
2022/12/16 03:13:37;;;;;;;19.45;8.80;;;;;;;3.95;99.50;100591.25;123455;1099;104245;-77
2022/12/16 03:16:11;;;;;;;19.35;8.20;;;;;;;3.93;100.00;100590.27;123626;1099;104367;-77
2022/12/16 03:18:45;;;;;;;19.57;8.57;;;;;;;3.90;100.00;100594.38;123473;1099;104691;-77
2022/12/16 03:21:17;;;;;;;;;;;;;;;3.89;99.86;100606.44;123509;1099;104660;-77
2022/12/16 03:23:54;;;;;;;19.20;8.07;;;;;;;3.88;100.00;100602.07;123446;1098;104278;-77
2022/12/16 03:26:31;;;;;;;18.77;8.13;;;;;;;3.87;100.00;100583.80;123498;1099;104201;-77
2022/12/16 03:29:08;;;;;;;19.50;8.37;;;;;;;3.85;100.00;100596.68;123429;1099;104395;-77
2022/12/16 03:31:45;;;;;;;19.50;8.13;;;;;;;3.85;99.59;100604.47;123460;1099;104306;-77
2022/12/16 03:34:25;;;;;;;19.25;8.30;;;;;;;3.87;99.68;100605.45;123483;1099;104248;-77
2022/12/16 03:37:00;;;;;;;18.80;7.80;;;;;;;3.86;99.59;100603.64;123570;1099;104229;-77
2022/12/16 03:39:33;;;;;;;16.53;7.40;;;;;;;3.86;99.67;100602.76;123514;1099;104248;-76
2022/12/16 03:42:06;;;;;;;18.20;7.43;;;;;;;3.86;100.00;100608.84;123482;1099;104759;-77
2022/12/16 03:44:37;;;;;;;19.20;7.70;;;;;;;3.84;100.00;100614.75;123354;1099;104310;-77
2022/12/16 03:47:09;;;;;;;17.70;7.57;;;;;;;3.83;99.28;100615.54;123441;1098;104844;-77
2022/12/16 03:49:41;;;;;;;19.57;8.47;;;;;;;3.84;100.00;100612.16;123483;1099;104255;-77
2022/12/16 03:52:12;;;;;;;19.30;7.93;;;;;;;3.82;99.75;100614.66;123153;1099;104297;-77
2022/12/16 03:54:43;;;;;;;17.53;7.63;;;;;;;3.82;100.00;100617.25;123445;1099;104330;-77
2022/12/16 03:57:14;;;;;;;15.57;6.87;;;;;;;3.82;99.80;100634.50;123451;1099;104322;-77
2022/12/16 03:59:45;;;;;;;17.60;7.50;;;;;;;3.80;100.00;100634.40;123428;1099;104348;-77
2022/12/16 04:02:16;;;;;;;18.13;7.80;;;;;;;3.80;100.00;100630.91;123474;1098;104316;-77
2022/12/16 04:04:47;;;;;;;17.97;7.37;;;;;;;3.80;99.68;100631.80;123475;1099;105611;-77
2022/12/16 04:07:20;;;;;;;18.57;7.93;;;;;;;3.82;100.00;100618.92;123436;1099;104431;-76
2022/12/16 04:09:52;;;;;;;17.27;7.23;;;;;;;3.81;100.00;100605.06;123386;1099;104361;-76
2022/12/16 04:29:23;;;;;;;17.40;7.20;;;;;;;3.65;100.00;100617.86;123473;1099;104469;-76
2022/12/16 04:31:54;;;;;;;18.37;7.33;;;;;;;3.66;100.00;100623.16;123443;1099;104310;-77
2022/12/16 04:34:26;;;;;;;17.80;8.07;;;;;;;3.68;100.00;100612.88;123547;1099;104856;-77
